Time;durP1;ratioP1;P1;durP2;ratioP2;P2;SDS_P1;SDS_P2;PMS_P1;PMS_P2;Temp;Humidity;BMP_temperature;BMP_pressure;BME280_temperature;BME280_humidity;BME280_pressure;Samples;Min_cycle;Max_cycle;Signal;HPM_P1;HPM_P2
2022/04/22 00:00:31;;;;;;;10.43;10.17;;;21.10;49.70;;;;;;5034537;28;20973;-49
2022/04/22 00:02:58;;;;;;;10.50;10.20;;;21.10;49.70;;;;;;5034412;28;20445;-50
2022/04/22 00:05:25;;;;;;;9.83;9.57;;;21.10;49.70;;;;;;5034357;28;20441;-50
2022/04/22 00:07:52;;;;;;;9.90;9.70;;;21.10;49.70;;;;;;5034057;28;20481;-50
2022/04/22 00:10:18;;;;;;;10.30;10.00;;;21.10;49.80;;;;;;5034384;28;20445;-50
2022/04/22 00:12:45;;;;;;;10.70;10.33;;;21.10;49.80;;;;;;5034201;28;20450;-49
2022/04/22 00:15:13;;;;;;;10.23;9.97;;;21.10;49.80;;;;;;5040383;28;20498;-51
2022/04/22 00:17:42;;;;;;;10.43;10.13;;;21.10;49.80;;;;;;5053786;28;21039;-50
2022/04/22 00:20:11;;;;;;;10.07;9.77;;;21.10;49.90;;;;;;5054086;28;20444;-51
2022/04/22 00:22:40;;;;;;;9.43;9.23;;;21.00;49.80;;;;;;5054115;28;20817;-50
2022/04/22 00:25:09;;;;;;;10.13;9.83;;;21.00;49.80;;;;;;5053945;28;20547;-52
2022/04/22 00:27:36;;;;;;;10.30;10.00;;;21.00;49.80;;;;;;5053575;28;20849;-51
2022/04/22 00:30:05;;;;;;;10.07;9.67;;;21.00;49.80;;;;;;5054095;28;20440;-50
2022/04/22 00:32:33;;;;;;;10.40;10.10;;;21.00;49.90;;;;;;5053929;28;20444;-50
2022/04/22 00:35:02;;;;;;;10.10;9.80;;;21.00;49.80;;;;;;5053781;28;20505;-50
2022/04/22 00:37:28;;;;;;;10.17;9.87;;;21.00;49.90;;;;;;5053518;28;20460;-50
2022/04/22 00:39:55;;;;;;;11.27;10.90;;;21.00;49.90;;;;;;5053711;28;20444;-50
2022/04/22 00:42:22;;;;;;;10.20;9.90;;;21.00;49.90;;;;;;5053610;28;20475;-50
2022/04/22 00:44:49;;;;;;;10.30;10.00;;;21.00;49.90;;;;;;5053725;28;20506;-51
2022/04/22 00:47:16;;;;;;;10.00;9.80;;;21.00;50.00;;;;;;5053149;28;20476;-50
2022/04/22 00:49:43;;;;;;;10.53;10.23;;;21.00;50.00;;;;;;5053495;28;20444;-50
2022/04/22 00:52:12;;;;;;;10.27;9.87;;;20.90;49.90;;;;;;5053553;28;20451;-51
2022/04/22 00:54:39;;;;;;;10.17;9.97;;;20.90;50.00;;;;;;5053465;28;20478;-54
2022/04/22 00:57:06;;;;;;;10.23;10.03;;;21.00;50.00;;;;;;5053135;28;20433;-51
2022/04/22 00:59:36;;;;;;;10.93;10.63;;;20.90;49.90;;;;;;5053369;28;20455;-50
2022/04/22 01:02:03;;;;;;;10.60;10.30;;;20.90;50.00;;;;;;5053235;28;20455;-51
2022/04/22 01:10:00;;;;;;;10.60;10.30;;;20.90;49.90;;;;;;5053231;28;20563;-49
2022/04/22 01:12:30;;;;;;;10.47;10.17;;;20.90;50.00;;;;;;5053169;28;20452;-51
2022/04/22 01:14:58;;;;;;;10.63;10.33;;;20.90;50.00;;;;;;5048733;28;20492;-49
2022/04/22 01:17:26;;;;;;;10.47;10.17;;;20.80;49.90;;;;;;5032633;28;20470;-50
2022/04/22 01:19:53;;;;;;;10.57;10.27;;;20.80;49.90;;;;;;5033118;28;20441;-49
2022/04/22 01:22:21;;;;;;;10.80;10.50;;;20.80;50.00;;;;;;5032953;28;20532;-52
2022/04/22 01:24:50;;;;;;;10.23;9.97;;;20.90;50.00;;;;;;5032896;28;20453;-52
2022/04/22 01:27:17;;;;;;;10.60;10.30;;;20.90;50.00;;;;;;5032555;28;20486;-50
2022/04/22 01:29:44;;;;;;;10.50;10.20;;;20.90;50.00;;;;;;5032770;28;20452;-50
2022/04/22 01:32:11;;;;;;;10.87;10.47;;;20.80;50.00;;;;;;5032756;28;20815;-50
2022/04/22 01:34:38;;;;;;;10.33;10.03;;;20.80;50.00;;;;;;5032807;28;20441;-49
2022/04/22 01:37:06;;;;;;;10.73;10.43;;;20.80;50.10;;;;;;5032333;28;20452;-50
2022/04/22 01:39:34;;;;;;;9.87;9.60;;;20.80;50.00;;;;;;5032616;28;20520;-52
2022/04/22 01:42:00;;;;;;;10.80;10.50;;;20.80;50.00;;;;;;5032629;28;20805;-52
2022/04/22 01:44:28;;;;;;;11.00;10.70;;;20.80;50.00;;;;;;5032500;28;20973;-50
2022/04/22 01:46:55;;;;;;;10.40;10.10;;;20.80;50.00;;;;;;5032119;28;20810;-50
2022/04/22 01:49:22;;;;;;;10.73;10.43;;;20.80;50.00;;;;;;5032523;28;20455;-50
2022/04/22 01:51:48;;;;;;;10.13;9.83;;;20.80;50.00;;;;;;5032448;28;20804;-52
2022/04/22 01:54:17;;;;;;;11.10;10.80;;;20.70;50.00;;;;;;5032384;28;20452;-49
2022/04/22 01:56:45;;;;;;;10.47;10.07;;;20.80;50.00;;;;;;5032154;28;20448;-50
2022/04/22 01:59:12;;;;;;;10.97;10.50;;;20.80;50.00;;;;;;5032108;28;20465;-51
2022/04/22 02:01:38;;;;;;;10.07;9.87;;;20.80;49.90;;;;;;5032311;28;20445;-49
2022/04/22 02:04:06;;;;;;;11.03;10.73;;;20.70;49.90;;;;;;5032178;28;20452;-50
2022/04/22 02:06:33;;;;;;;11.30;10.90;;;20.70;49.90;;;;;;5032196;28;20437;-52
2022/04/22 02:09:00;;;;;;;11.00;10.70;;;20.80;49.90;;;;;;5031892;28;21041;-56
2022/04/22 02:11:26;;;;;;;11.50;11.20;;;20.70;49.90;;;;;;5032591;28;20928;-50
2022/04/22 02:13:54;;;;;;;10.70;10.40;;;20.70;49.90;;;;;;5031554;28;20450;-55
2022/04/22 02:16:21;;;;;;;11.40;10.90;;;20.70;50.00;;;;;;5047666;28;20455;-50
2022/04/22 02:18:49;;;;;;;11.27;10.87;;;20.70;49.90;;;;;;5051718;28;20980;-52
2022/04/22 02:21:15;;;;;;;12.00;11.60;;;20.70;49.90;;;;;;5051881;28;20506;-50
2022/04/22 02:23:42;;;;;;;10.80;10.50;;;20.70;50.00;;;;;;5051811;28;20444;-52
2022/04/22 02:26:09;;;;;;;10.27;9.97;;;20.70;49.90;;;;;;5051780;28;20452;-54
2022/04/22 02:28:35;;;;;;;10.67;10.37;;;20.70;50.00;;;;;;5051404;28;20848;-51
2022/04/22 02:31:06;;;;;;;10.43;10.13;;;20.70;49.90;;;;;;5051816;28;20436;-51
2022/04/22 02:33:33;;;;;;;11.37;11.07;;;20.70;50.30;;;;;;5051716;28;20308;-50
2022/04/22 02:36:00;;;;;;;10.90;10.60;;;20.70;49.80;;;;;;5051677;28;20810;-50
2022/04/22 02:38:28;;;;;;;10.43;10.13;;;20.70;49.80;;;;;;5051366;28;20796;-50
2022/04/22 02:46:27;;;;;;;11.00;10.70;;;20.70;49.90;;;;;;5051497;28;20501;-53
2022/04/22 02:48:57;;;;;;;11.37;11.07;;;20.70;49.90;;;;;;5051314;28;20573;-50
2022/04/22 02:51:24;;;;;;;10.90;10.60;;;20.70;49.90;;;;;;5051594;28;20833;-49
2022/04/22 02:53:52;;;;;;;11.13;10.83;;;20.70;49.80;;;;;;5051655;28;20474;-52
2022/04/22 02:56:19;;;;;;;11.10;10.80;;;20.70;49.90;;;;;;5051303;28;20535;-51
2022/04/22 02:58:47;;;;;;;10.70;10.40;;;20.70;49.80;;;;;;5051112;28;20460;-51
2022/04/22 03:01:14;;;;;;;11.87;11.57;;;20.70;49.90;;;;;;5051513;28;20447;-51
2022/04/22 03:03:43;;;;;;;11.03;10.73;;;20.70;49.80;;;;;;5051430;28;20444;-50
2022/04/22 03:06:09;;;;;;;11.37;11.07;;;20.70;49.90;;;;;;5051302;28;20468;-50
2022/04/22 03:08:36;;;;;;;11.60;11.30;;;20.70;50.00;;;;;;5051011;28;20484;-54
2022/04/22 03:11:03;;;;;;;11.50;11.20;;;20.60;49.90;;;;;;5051374;28;20440;-51
2022/04/22 03:13:30;;;;;;;11.20;10.90;;;20.60;49.90;;;;;;5051304;28;20456;-49
2022/04/22 03:15:58;;;;;;;10.87;10.57;;;20.60;49.80;;;;;;5038850;28;20441;-50
2022/04/22 03:18:25;;;;;;;11.23;10.93;;;20.60;49.80;;;;;;5031087;28;20825;-52
2022/04/22 03:20:53;;;;;;;11.30;10.90;;;20.60;49.90;;;;;;5031368;28;20445;-51
2022/04/22 03:23:19;;;;;;;10.73;10.43;;;20.60;49.90;;;;;;5031312;28;20934;-52
2022/04/22 03:25:46;;;;;;;11.33;11.03;;;20.60;49.80;;;;;;5032383;28;20456;-54
2022/04/22 03:28:13;;;;;;;10.80;10.50;;;20.60;49.80;;;;;;5034694;28;20558;-50
2022/04/22 03:30:40;;;;;;;11.00;10.70;;;20.60;49.80;;;;;;5035220;28;20454;-50
2022/04/22 03:33:07;;;;;;;11.37;10.97;;;20.60;49.80;;;;;;5034917;28;20452;-52
2022/04/22 03:35:34;;;;;;;10.77;10.47;;;20.60;49.80;;;;;;5035076;28;20449;-50
2022/04/22 03:38:02;;;;;;;11.50;11.20;;;20.60;49.80;;;;;;5034663;28;20829;-50
2022/04/22 03:40:29;;;;;;;11.77;11.43;;;20.60;49.80;;;;;;5034923;28;20803;-51
2022/04/22 03:42:56;;;;;;;10.93;10.63;;;20.60;49.80;;;;;;5034824;28;20464;-52
2022/04/22 03:45:23;;;;;;;10.50;10.20;;;20.60;49.70;;;;;;5034799;28;20457;-50
2022/04/22 03:47:49;;;;;;;10.90;10.60;;;20.60;49.70;;;;;;5034410;28;20517;-52
2022/04/22 03:50:16;;;;;;;10.70;10.40;;;20.60;49.70;;;;;;5034706;28;20453;-50
2022/04/22 03:52:43;;;;;;;11.00;10.63;;;20.60;49.70;;;;;;5034680;28;20819;-51
2022/04/22 03:55:12;;;;;;;11.13;10.73;;;20.60;49.80;;;;;;5034633;28;20794;-51
2022/04/22 04:00:23;;;;;;;11.63;11.33;;;20.60;49.70;;;;;;5034596;28;21050;-54
2022/04/22 04:02:50;;;;;;;11.33;11.03;;;20.50;49.70;;;;;;5034529;28;20438;-51
2022/04/22 04:05:17;;;;;;;11.70;11.40;;;20.50;49.70;;;;;;5034523;28;20445;-50
2022/04/22 04:07:45;;;;;;;11.37;11.07;;;20.50;50.10;;;;;;5033972;28;20472;-51
2022/04/22 04:16:00;;;;;;;11.40;11.10;;;20.50;49.60;;;;;;5044641;28;20781;-52
2022/04/22 04:18:29;;;;;;;12.20;11.80;;;20.50;49.60;;;;;;5053855;28;20452;-52
2022/04/22 04:23:40;;;;;;;10.90;10.60;;;20.50;49.60;;;;;;5054114;28;20411;-51
2022/04/22 04:26:08;;;;;;;10.93;10.63;;;20.50;49.60;;;;;;5054219;28;20443;-50
2022/04/22 04:28:36;;;;;;;11.67;11.27;;;20.50;49.70;;;;;;5053596;28;20488;-51
2022/04/22 04:31:04;;;;;;;11.23;10.83;;;20.50;49.70;;;;;;5053898;28;20459;-50
2022/04/22 04:33:31;;;;;;;11.23;10.93;;;20.50;49.70;;;;;;5053901;28;20457;-49
2022/04/22 04:35:58;;;;;;;11.40;11.10;;;20.50;49.70;;;;;;5053837;28;20867;-50
2022/04/22 04:38:25;;;;;;;11.40;11.10;;;20.50;49.70;;;;;;5053101;28;20475;-53
2022/04/22 04:40:52;;;;;;;12.30;11.70;;;20.60;49.60;;;;;;5053800;28;20444;-50
2022/04/22 04:43:21;;;;;;;12.60;12.20;;;20.60;49.80;;;;;;5053644;28;20456;-51
2022/04/22 04:45:49;;;;;;;13.07;12.60;;;20.60;51.70;;;;;;5053603;28;20445;-50
2022/04/22 04:48:16;;;;;;;12.80;12.17;;;20.60;50.70;;;;;;5053228;28;20494;-49
2022/04/22 04:50:44;;;;;;;13.37;12.67;;;20.60;51.60;;;;;;5053510;28;20574;-49
2022/04/22 04:53:11;;;;;;;14.40;13.80;;;20.50;52.20;;;;;;5053482;28;20448;-53
2022/04/22 04:55:38;;;;;;;14.57;13.60;;;20.50;53.70;;;;;;5073070;22;20493;-46
2022/04/22 04:58:05;;;;;;;14.10;13.30;;;20.50;54.60;;;;;;5042233;28;20444;-49
2022/04/22 05:00:33;;;;;;;14.63;13.70;;;20.60;54.80;;;;;;5053352;28;20444;-50
2022/04/22 05:03:00;;;;;;;13.77;12.87;;;20.50;54.40;;;;;;5053436;28;20448;-50
2022/04/22 05:05:27;;;;;;;14.60;13.40;;;20.50;54.20;;;;;;5053164;28;20464;-50
2022/04/22 05:07:56;;;;;;;14.27;13.47;;;20.50;54.00;;;;;;5052940;28;20447;-49
2022/04/22 05:10:24;;;;;;;14.40;13.40;;;20.50;53.80;;;;;;5053179;28;20448;-49
2022/04/22 05:12:51;;;;;;;13.63;13.13;;;20.50;53.60;;;;;;5053176;28;20451;-47
2022/04/22 05:15:19;;;;;;;14.77;13.80;;;20.50;53.40;;;;;;5052970;28;20475;-46
2022/04/22 05:17:48;;;;;;;14.40;13.80;;;20.50;53.30;;;;;;5052793;28;20794;-48
2022/04/22 05:20:16;;;;;;;14.33;13.53;;;20.60;53.10;;;;;;5052994;28;20448;-47
2022/04/22 05:22:44;;;;;;;14.73;13.33;;;20.50;52.90;;;;;;5052915;28;20452;-46
2022/04/22 05:25:12;;;;;;;13.90;13.00;;;20.50;52.90;;;;;;5052807;28;20451;-46
2022/04/22 05:27:39;;;;;;;12.60;11.90;;;20.50;52.80;;;;;;5052654;28;20474;-48
2022/04/22 05:32:54;;;;;;;13.60;12.80;;;20.50;52.40;;;;;;5052858;28;20470;-51
2022/04/22 05:35:22;;;;;;;13.67;12.90;;;20.50;52.30;;;;;;5052594;28;20471;-47
2022/04/22 05:37:51;;;;;;;14.43;13.63;;;20.50;52.20;;;;;;5052428;28;20437;-48
2022/04/22 05:40:19;;;;;;;13.93;13.17;;;20.50;52.10;;;;;;5052503;28;20455;-47
2022/04/22 05:42:47;;;;;;;12.80;12.10;;;20.50;52.00;;;;;;5052425;28;20448;-50
2022/04/22 05:45:14;;;;;;;13.63;13.13;;;20.50;51.90;;;;;;5052395;28;20475;-50
2022/04/22 05:47:42;;;;;;;12.53;12.03;;;20.50;51.90;;;;;;5052070;28;20456;-49
2022/04/22 05:50:11;;;;;;;13.50;12.80;;;20.60;51.90;;;;;;5051876;28;20484;-48
2022/04/22 05:52:39;;;;;;;14.40;13.70;;;20.50;51.70;;;;;;5052402;28;20813;-49
2022/04/22 05:55:08;;;;;;;12.97;12.37;;;20.50;51.70;;;;;;5052028;28;20448;-46
2022/04/22 05:57:36;;;;;;;13.80;13.10;;;20.50;51.70;;;;;;5052099;28;20457;-46
2022/04/22 06:00:07;;;;;;;14.20;13.40;;;20.50;51.60;;;;;;5052294;28;20441;-47
2022/04/22 06:02:33;;;;;;;13.27;12.67;;;20.50;51.50;;;;;;5052197;28;20506;-47
2022/04/22 06:05:00;;;;;;;13.20;12.60;;;20.50;51.50;;;;;;5051958;28;20785;-47
2022/04/22 06:07:28;;;;;;;13.10;12.60;;;20.50;51.50;;;;;;5051781;28;20449;-47
2022/04/22 06:12:39;;;;;;;13.90;13.30;;;20.50;51.40;;;;;;5052199;28;20418;-48
2022/04/22 06:15:06;;;;;;;14.10;13.60;;;20.50;51.30;;;;;;5051903;28;20448;-49
2022/04/22 06:17:33;;;;;;;13.77;12.87;;;20.50;51.20;;;;;;5051810;28;20527;-46
2022/04/22 06:20:00;;;;;;;13.53;12.87;;;20.50;51.10;;;;;;5051875;28;20449;-46
2022/04/22 06:22:30;;;;;;;12.43;11.83;;;20.50;51.10;;;;;;5051746;28;20449;-45
2022/04/22 06:24:57;;;;;;;13.03;12.50;;;20.50;51.10;;;;;;5051802;28;20502;-47
2022/04/22 06:27:25;;;;;;;13.80;12.83;;;20.50;51.00;;;;;;5051609;28;20449;-49
2022/04/22 06:29:53;;;;;;;13.23;12.40;;;20.50;50.90;;;;;;5051733;28;20503;-48
2022/04/22 06:32:21;;;;;;;12.17;11.63;;;20.50;50.90;;;;;;5051641;28;20451;-51
2022/04/22 06:34:48;;;;;;;12.10;11.70;;;20.50;50.90;;;;;;5051616;28;20821;-50
2022/04/22 06:37:15;;;;;;;12.53;12.00;;;20.50;50.90;;;;;;5051327;28;20461;-48
2022/04/22 06:47:59;;;;;;;12.77;12.17;;;20.50;50.70;;;;;;5051647;28;20432;-49
2022/04/22 06:50:26;;;;;;;12.00;11.60;;;20.50;50.70;;;;;;5051381;28;20511;-47
2022/04/22 06:52:53;;;;;;;11.83;11.33;;;20.50;50.60;;;;;;5051545;28;20441;-47
2022/04/22 06:55:22;;;;;;;12.63;12.10;;;20.50;50.60;;;;;;5051268;28;20836;-47
2022/04/22 06:57:50;;;;;;;12.97;12.37;;;20.50;50.60;;;;;;5051334;28;20448;-46
2022/04/22 07:00:18;;;;;;;12.80;12.20;;;20.50;50.50;;;;;;5053599;28;20447;-48
2022/04/22 07:02:45;;;;;;;12.83;12.30;;;20.50;50.50;;;;;;5055553;28;20444;-46
2022/04/22 07:05:13;;;;;;;12.67;11.93;;;20.50;50.50;;;;;;5055468;28;20440;-46
2022/04/22 07:07:40;;;;;;;12.30;11.90;;;20.50;50.50;;;;;;5055277;28;20513;-48
2022/04/22 07:10:08;;;;;;;12.43;11.93;;;20.50;50.40;;;;;;5055328;28;20836;-47
2022/04/22 07:12:36;;;;;;;12.60;12.10;;;20.50;50.40;;;;;;5055413;28;20456;-50
2022/04/22 07:15:04;;;;;;;12.70;12.20;;;20.50;50.30;;;;;;5055336;28;20534;-47
2022/04/22 07:17:33;;;;;;;12.20;11.80;;;20.50;50.40;;;;;;5055151;28;20448;-48
2022/04/22 07:20:01;;;;;;;13.87;13.23;;;20.50;50.30;;;;;;5055427;28;20505;-48
2022/04/22 07:22:28;;;;;;;12.50;12.00;;;20.50;50.20;;;;;;5055187;28;20440;-50
2022/04/22 07:24:56;;;;;;;12.50;12.00;;;20.50;50.50;;;;;;5055218;28;20471;-49
2022/04/22 07:27:27;;;;;;;12.10;11.80;;;20.50;50.30;;;;;;5055029;28;20445;-48
2022/04/22 07:29:55;;;;;;;12.80;12.30;;;20.50;50.30;;;;;;5055158;28;20890;-47
2022/04/22 07:32:23;;;;;;;13.70;12.90;;;20.50;50.30;;;;;;5055104;28;20746;-49
2022/04/22 07:34:50;;;;;;;11.10;10.60;;;20.50;50.20;;;;;;5055041;28;20522;-47
2022/04/22 07:37:17;;;;;;;12.23;11.83;;;20.50;50.20;;;;;;5054674;28;20468;-46
2022/04/22 07:39:44;;;;;;;11.90;11.40;;;20.50;50.20;;;;;;5055016;28;20783;-47
2022/04/22 07:42:16;;;;;;;12.17;11.77;;;20.50;50.10;;;;;;5054877;28;20813;-46
2022/04/22 07:47:36;;;;;;;14.90;14.30;;;20.50;50.00;;;;;;5054689;28;20416;-47
2022/04/22 07:50:05;;;;;;;14.30;13.70;;;20.50;50.00;;;;;;5054746;28;20869;-47
2022/04/22 07:52:33;;;;;;;13.40;13.00;;;20.50;50.00;;;;;;5054602;28;20456;-48
2022/04/22 07:55:00;;;;;;;15.00;14.30;;;20.60;50.10;;;;;;5054470;28;20444;-47
2022/04/22 07:57:27;;;;;;;12.10;11.70;;;20.50;49.90;;;;;;5054392;28;20448;-49
2022/04/22 07:59:54;;;;;;;12.90;12.30;;;20.50;49.80;;;;;;5054549;28;20999;-51
2022/04/22 08:02:21;;;;;;;12.03;11.63;;;20.50;49.80;;;;;;5054554;28;20471;-51
2022/04/22 08:04:49;;;;;;;11.90;11.47;;;20.50;49.70;;;;;;5054426;28;20813;-47
2022/04/22 08:07:16;;;;;;;12.10;11.70;;;20.50;49.70;;;;;;5054081;28;20464;-47
2022/04/22 08:09:45;;;;;;;11.53;11.13;;;20.60;49.80;;;;;;5054247;28;20484;-46
2022/04/22 08:12:13;;;;;;;12.00;11.67;;;20.60;49.60;;;;;;5053464;28;20455;-47
2022/04/22 08:14:39;;;;;;;12.93;12.53;;;20.60;49.70;;;;;;5054231;28;20938;-46
2022/04/22 08:17:06;;;;;;;12.40;12.00;;;20.60;49.80;;;;;;5053945;28;20476;-46
2022/04/22 08:19:33;;;;;;;11.50;11.20;;;20.60;49.70;;;;;;5054082;28;20937;-47
2022/04/22 08:22:01;;;;;;;11.97;11.67;;;20.60;49.70;;;;;;5054096;28;20448;-46
2022/04/22 08:24:29;;;;;;;11.70;11.40;;;20.60;49.50;;;;;;5053998;28;20919;-47
2022/04/22 08:26:56;;;;;;;12.40;12.00;;;20.70;49.50;;;;;;5053819;28;21016;-48
2022/04/22 08:29:23;;;;;;;12.70;12.20;;;20.60;49.50;;;;;;5053869;28;20488;-48
2022/04/22 08:31:52;;;;;;;12.60;12.20;;;20.60;49.50;;;;;;5053882;28;20452;-46
2022/04/22 08:34:19;;;;;;;12.60;12.20;;;20.60;49.40;;;;;;5053869;28;20941;-52
2022/04/22 08:36:47;;;;;;;11.20;10.90;;;20.60;49.50;;;;;;5053588;28;20460;-47
2022/04/22 08:39:15;;;;;;;11.40;11.00;;;20.60;49.40;;;;;;5053833;28;20456;-49
2022/04/22 08:41:42;;;;;;;12.10;11.70;;;20.70;49.40;;;;;;5053807;28;20444;-51
2022/04/22 08:44:13;;;;;;;12.17;11.73;;;20.70;49.40;;;;;;5053786;28;20813;-47
2022/04/22 08:52:11;;;;;;;11.70;11.20;;;20.70;49.30;;;;;;5053678;28;20423;-45
2022/04/22 08:54:43;;;;;;;11.50;11.20;;;20.70;49.40;;;;;;5053495;28;20925;-48
2022/04/22 08:57:11;;;;;;;12.00;11.60;;;20.70;49.30;;;;;;5053149;28;20534;-47
2022/04/22 08:59:38;;;;;;;11.50;11.10;;;20.70;49.30;;;;;;5053393;28;20451;-48
2022/04/22 09:02:05;;;;;;;11.70;11.40;;;20.70;49.20;;;;;;5053391;28;20455;-47
2022/04/22 09:04:31;;;;;;;11.77;11.37;;;20.70;49.20;;;;;;5053213;28;20813;-46
2022/04/22 09:07:00;;;;;;;12.10;11.70;;;20.70;49.20;;;;;;5053093;28;20469;-46
2022/04/22 09:09:27;;;;;;;11.03;10.73;;;20.70;49.10;;;;;;5053211;28;20499;-49
2022/04/22 09:12:08;;;;;;;11.03;10.73;;;20.70;49.10;;;;;;5053139;28;20448;-47
2022/04/22 09:14:34;;;;;;;10.33;10.03;;;20.70;49.10;;;;;;5053256;28;20502;-45
2022/04/22 09:17:02;;;;;;;10.40;10.10;;;20.70;49.10;;;;;;5052947;28;20526;-46
2022/04/22 09:19:35;;;;;;;10.50;10.20;;;20.70;49.00;;;;;;5053056;28;20436;-46
2022/04/22 09:22:02;;;;;;;10.60;10.27;;;20.70;49.00;;;;;;5053039;28;20441;-49
2022/04/22 09:24:29;;;;;;;10.47;10.17;;;20.70;49.00;;;;;;5051900;28;20789;-48
2022/04/22 09:27:08;;;;;;;11.17;10.77;;;20.70;49.00;;;;;;5052625;28;20826;-49
2022/04/22 09:29:44;;;;;;;11.40;11.00;;;20.70;48.90;;;;;;5052736;28;20519;-48
2022/04/22 09:32:12;;;;;;;11.93;11.53;;;20.80;48.90;;;;;;5052900;28;20448;-47
2022/04/22 09:34:42;;;;;;;11.23;10.83;;;20.80;48.90;;;;;;5052832;28;20813;-48
2022/04/22 09:42:51;;;;;;;10.97;10.67;;;20.80;48.80;;;;;;5052670;28;20466;-47
2022/04/22 09:45:17;;;;;;;11.40;11.10;;;20.80;48.80;;;;;;5052441;28;20934;-47
2022/04/22 09:47:55;;;;;;;12.07;11.67;;;20.80;48.70;;;;;;5032941;28;20477;-46
2022/04/22 09:50:39;;;;;;;11.57;11.17;;;20.80;48.70;;;;;;5032223;28;20488;-46
2022/04/22 09:53:07;;;;;;;12.50;12.10;;;20.80;49.40;;;;;;5031755;28;20473;-48
2022/04/22 09:55:37;;;;;;;11.80;11.40;;;20.80;50.00;;;;;;5032310;28;20900;-46
2022/04/22 09:58:06;;;;;;;12.97;12.37;;;20.80;50.50;;;;;;5031865;28;20496;-47
2022/04/22 10:00:34;;;;;;;11.43;11.03;;;20.80;51.20;;;;;;5032141;28;20477;-46
2022/04/22 10:03:01;;;;;;;11.17;10.87;;;20.90;51.90;;;;;;5032136;28;20457;-46
2022/04/22 10:05:31;;;;;;;11.30;10.90;;;20.90;52.10;;;;;;5032132;28;20465;-46
2022/04/22 10:08:00;;;;;;;12.30;11.87;;;20.90;52.20;;;;;;5031938;28;20967;-46
2022/04/22 10:10:32;;;;;;;13.33;12.73;;;20.90;52.30;;;;;;5031941;28;20481;-47
2022/04/22 10:13:02;;;;;;;12.60;12.10;;;20.90;52.90;;;;;;5031992;28;20445;-47
2022/04/22 10:15:37;;;;;;;12.70;12.20;;;20.90;52.20;;;;;;5032161;28;20886;-48
2022/04/22 10:18:05;;;;;;;12.90;12.40;;;20.90;52.30;;;;;;5032044;28;20445;-48
2022/04/22 10:20:32;;;;;;;13.63;13.20;;;20.90;52.00;;;;;;5031950;28;20441;-48
2022/04/22 10:23:00;;;;;;;12.03;11.63;;;20.90;52.10;;;;;;5031883;28;20956;-46
2022/04/22 10:25:30;;;;;;;12.87;12.30;;;20.90;52.00;;;;;;5032008;28;20468;-47
2022/04/22 10:27:58;;;;;;;12.77;12.20;;;21.00;52.00;;;;;;5031754;28;20835;-53
2022/04/22 10:30:26;;;;;;;12.10;11.60;;;21.00;51.80;;;;;;5031699;28;20485;-50
2022/04/22 10:32:55;;;;;;;11.23;10.93;;;21.00;51.70;;;;;;5031834;28;20445;-49
2022/04/22 10:35:24;;;;;;;11.30;10.90;;;21.00;51.50;;;;;;5031471;28;20475;-47
2022/04/22 10:37:52;;;;;;;12.00;11.60;;;21.00;51.30;;;;;;5031463;28;20440;-49
2022/04/22 10:40:20;;;;;;;11.17;10.77;;;21.00;51.10;;;;;;5031837;28;20449;-48
2022/04/22 10:42:47;;;;;;;11.40;10.80;;;21.00;51.10;;;;;;5031661;28;20536;-49
2022/04/22 10:48:00;;;;;;;11.13;10.73;;;21.00;50.80;;;;;;5031635;28;20417;-52
2022/04/22 10:50:29;;;;;;;11.40;11.00;;;21.10;50.80;;;;;;5031596;28;20664;-48
2022/04/22 10:53:04;;;;;;;11.90;11.50;;;21.10;50.70;;;;;;5031576;28;20447;-50
2022/04/22 10:55:32;;;;;;;11.10;10.80;;;21.00;50.60;;;;;;5057072;22;20965;-49
2022/04/22 10:58:24;;;;;;;11.80;11.40;;;21.00;50.60;;;;;;5039554;28;20479;-47
2022/04/22 11:00:54;;;;;;;11.20;10.90;;;21.10;50.50;;;;;;5051524;28;20439;-49
2022/04/22 11:03:25;;;;;;;11.10;10.70;;;21.10;50.60;;;;;;5051556;28;20476;-51
2022/04/22 11:05:55;;;;;;;12.57;11.87;;;21.10;50.40;;;;;;5051357;28;20496;-52
2022/04/22 11:08:31;;;;;;;11.17;10.87;;;21.10;50.30;;;;;;5051327;28;20472;-53
2022/04/22 11:11:15;;;;;;;12.07;11.60;;;21.10;50.10;;;;;;5051368;28;20519;-49
2022/04/22 11:13:44;;;;;;;11.43;11.13;;;21.10;50.00;;;;;;5051554;28;20484;-47
2022/04/22 11:16:26;;;;;;;12.50;12.10;;;21.20;50.00;;;;;;5051307;28;20464;-48
2022/04/22 11:19:37;;;;;;;12.07;11.67;;;21.20;50.00;;;;;;5051374;28;20443;-48
2022/04/22 11:22:07;;;;;;;11.87;11.37;;;21.20;49.80;;;;;;5051291;28;20514;-47
2022/04/22 11:24:34;;;;;;;12.80;12.23;;;21.20;50.00;;;;;;5051336;28;20452;-50
2022/04/22 11:27:07;;;;;;;11.97;11.57;;;21.20;49.90;;;;;;5051116;28;20460;-48
2022/04/22 11:29:34;;;;;;;11.37;10.97;;;21.20;49.90;;;;;;5051179;28;20453;-47
2022/04/22 11:32:08;;;;;;;11.23;10.93;;;21.30;49.80;;;;;;5051032;28;20486;-52
2022/04/22 11:35:14;;;;;;;11.97;11.57;;;21.20;49.70;;;;;;5051434;28;20831;-47
2022/04/22 11:37:42;;;;;;;10.73;10.43;;;21.30;49.70;;;;;;5051073;28;20464;-54
2022/04/22 11:40:10;;;;;;;12.30;11.90;;;21.30;49.50;;;;;;5051064;28;20439;-49
2022/04/22 11:42:44;;;;;;;11.63;11.23;;;21.30;49.60;;;;;;5051210;28;20471;-47
2022/04/22 11:45:13;;;;;;;12.10;11.73;;;21.30;49.50;;;;;;5051062;28;20506;-47
2022/04/22 11:47:40;;;;;;;11.97;11.67;;;21.30;49.40;;;;;;5053272;28;20464;-47
2022/04/22 11:50:09;;;;;;;11.80;11.40;;;21.30;49.40;;;;;;5054657;28;20479;-51
2022/04/22 11:52:36;;;;;;;11.63;11.27;;;21.40;49.50;;;;;;5054727;28;20867;-48
2022/04/22 11:55:06;;;;;;;11.60;11.20;;;21.40;49.20;;;;;;5054702;28;20440;-47
2022/04/22 11:57:34;;;;;;;11.40;11.10;;;21.40;48.90;;;;;;5054338;28;21016;-52
2022/04/22 12:05:34;;;;;;;12.00;11.67;;;21.50;48.60;;;;;;5054515;28;20434;-48
2022/04/22 12:08:05;;;;;;;12.03;11.63;;;21.40;48.40;;;;;;5054263;28;20491;-50
2022/04/22 12:10:35;;;;;;;11.70;11.30;;;21.50;48.60;;;;;;5054188;28;20515;-48
2022/04/22 12:13:03;;;;;;;12.20;11.80;;;21.60;48.60;;;;;;5054322;28;20441;-47
2022/04/22 12:15:30;;;;;;;11.30;11.00;;;21.70;48.30;;;;;;5049504;28;20464;-47
2022/04/22 12:17:57;;;;;;;11.40;11.10;;;21.80;48.00;;;;;;5033932;28;20445;-48
2022/04/22 12:20:25;;;;;;;12.57;12.17;;;21.80;47.80;;;;;;5033555;28;20453;-52
2022/04/22 12:22:55;;;;;;;13.60;13.10;;;21.70;48.00;;;;;;5034063;28;20453;-48
2022/04/22 12:25:23;;;;;;;12.60;12.20;;;21.70;48.10;;;;;;5034099;28;21000;-44
2022/04/22 12:30:44;;;;;;;13.30;12.90;;;21.60;48.10;;;;;;5121906;27;20297;-46
2022/04/22 12:33:18;;;;;;;11.20;10.80;;;21.80;48.00;;;;;;5070518;28;20443;-44
2022/04/22 12:35:46;;;;;;;11.90;11.50;;;21.80;47.80;;;;;;5068908;28;20471;-44
2022/04/22 12:38:14;;;;;;;13.10;12.50;;;21.80;47.70;;;;;;5068740;28;20998;-44
2022/04/22 12:40:47;;;;;;;12.10;11.70;;;21.90;47.70;;;;;;5091880;22;20448;-43
2022/04/22 12:43:27;;;;;;;11.60;11.20;;;21.90;47.60;;;;;;5039194;28;20451;-43
2022/04/22 12:54:15;;;;;;;11.20;10.90;;;22.20;47.70;;;;;;5048595;28;20436;-45
2022/04/22 12:56:50;;;;;;;11.63;11.33;;;22.20;47.10;;;;;;5048331;28;20452;-42
2022/04/22 12:59:16;;;;;;;11.20;10.90;;;22.10;47.10;;;;;;5048390;28;20502;-42
2022/04/22 13:01:47;;;;;;;11.93;11.53;;;22.10;47.20;;;;;;5048506;28;20468;-43
2022/04/22 13:04:21;;;;;;;12.50;12.10;;;22.00;47.30;;;;;;5031464;28;20592;-43
2022/04/22 13:06:49;;;;;;;12.07;11.67;;;22.00;47.40;;;;;;5013690;28;20458;-41
2022/04/22 13:09:17;;;;;;;11.80;11.30;;;21.90;47.60;;;;;;5008624;28;20518;-42
2022/04/22 13:11:44;;;;;;;12.77;12.30;;;21.70;47.80;;;;;;5008550;28;20478;-43
2022/04/22 13:14:13;;;;;;;11.50;11.10;;;21.70;48.30;;;;;;5008601;28;20474;-41
2022/04/22 13:16:39;;;;;;;11.20;10.80;;;21.60;48.60;;;;;;5022780;28;20453;-46
2022/04/22 13:19:08;;;;;;;12.10;11.70;;;21.60;48.80;;;;;;5026386;28;20446;-42
2022/04/22 13:21:34;;;;;;;12.90;12.40;;;21.50;48.80;;;;;;5026534;28;20465;-41
2022/04/22 13:24:02;;;;;;;12.37;11.97;;;21.50;49.60;;;;;;5026402;28;20728;-42
2022/04/22 13:26:29;;;;;;;12.80;12.40;;;21.50;49.10;;;;;;5016275;28;20524;-42
2022/04/22 13:28:56;;;;;;;12.83;12.20;;;21.60;49.20;;;;;;5027902;28;20481;-42
2022/04/22 13:31:23;;;;;;;13.67;13.17;;;21.60;49.30;;;;;;5028086;28;20461;-41
2022/04/22 13:33:50;;;;;;;12.70;12.30;;;21.60;49.60;;;;;;5023021;28;20450;-41
2022/04/22 13:36:19;;;;;;;13.53;12.83;;;21.60;49.80;;;;;;5018937;28;20460;-41
2022/04/22 13:38:48;;;;;;;12.27;11.90;;;21.60;50.00;;;;;;5027693;28;20993;-42
2022/04/22 13:41:15;;;;;;;12.67;12.23;;;21.60;50.10;;;;;;5019002;28;20505;-41
2022/04/22 13:43:43;;;;;;;12.73;12.33;;;21.70;50.00;;;;;;5014664;28;20446;-42